Wargrave, United Kingdom
Current Conditions -  °F | °C
As of 2:50 AM on Sunday 21 Dec 2014 (Local Time) from EGUB Reporting Station
Broken Clouds Broken Clouds  
Wind Chill:   Ceiling: 1600
Heat Index:   Visibility: 6mi
Dew Point:   Wind: 10mph
Humidity: 87%   Direction: 190°S
Pressure: 30.42"   Gusts: NA
Location:  51.5°N, 0.87°W
Report Text: EGUB 210250Z AUTO 19009KT 9999 // BKN016/// 06/04 Q1030
Loading
Personal Weather Stations






























Interactive Weather Map New forecast layout! Learn more

10-Day Weather Forecast

Advertisements
Track Severe Weather on mobile